Time;durP1;ratioP1;P1;durP2;ratioP2;P2;SDS_P1;SDS_P2;PMS_P1;PMS_P2;Temp;Humidity;BMP_temperature;BMP_pressure;BME280_temperature;BME280_humidity;BME280_pressure;Samples;Min_cycle;Max_cycle;Signal;HPM_P1;HPM_P2
2021/01/23 00:01:08;;;;;;;105.22;54.72;;;256.60;1792.00;;;;;;5019049;28;20113;-56
2021/01/23 00:03:34;;;;;;;15.15;9.32;;;256.50;1766.40;;;;;;5029383;28;20456;-56
2021/01/23 00:05:59;;;;;;;41.40;23.63;;;281.70;1612.80;;;;;;5029502;28;20032;-56
2021/01/23 00:08:25;;;;;;;35.40;21.30;;;282.00;1612.80;;;;;;5029175;28;20460;-56
2021/01/23 00:10:51;;;;;;;26.10;16.20;;;282.00;1587.20;;;;;;5019885;28;20037;-57
2021/01/23 00:13:16;;;;;;;30.42;17.77;;;282.40;1536.00;;;;;;5019521;28;20068;-55
2021/01/23 00:15:42;;;;;;;32.10;17.50;;;282.50;1510.40;;;;;;5029346;28;20525;-56
2021/01/23 00:18:08;;;;;;;110.60;56.85;;;307.30;1510.40;;;;;;5019621;28;20040;-56
2021/01/23 00:20:33;;;;;;;16.38;8.95;;;307.40;1510.40;;;;;;5019429;28;20034;-57
2021/01/23 00:22:59;;;;;;;4.10;2.58;;;307.60;1484.80;;;;;;5018351;28;20022;-56
2021/01/23 00:25:24;;;;;;;78.88;47.25;;;307.80;1433.60;;;;;;5019924;28;20021;-56
2021/01/23 00:27:50;;;;;;;77.75;42.15;;;307.70;1484.80;;;;;;5019026;28;20022;-55
2021/01/23 00:30:16;;;;;;;14.93;8.07;;;307.70;1484.80;;;;;;5029259;28;20033;-55
2021/01/23 00:32:42;;;;;;;12.45;7.10;;;307.70;1484.80;;;;;;5028747;28;20072;-55
2021/01/23 00:35:08;;;;;;;15.20;9.85;;;307.70;1484.80;;;;;;5028689;28;20050;-56
2021/01/23 00:37:34;;;;;;;28.30;15.60;;;307.60;1536.00;;;;;;5028860;28;20028;-56
2021/01/23 00:40:00;;;;;;;16.55;9.95;;;307.20;1612.80;;;;;;5028870;28;20373;-56
2021/01/23 00:42:26;;;;;;;26.10;12.45;;;282.40;1612.80;;;;;;5028809;28;20028;-57
2021/01/23 00:44:51;;;;;;;53.30;30.23;;;282.20;1612.80;;;;;;5019239;28;20441;-57
2021/01/23 00:47:17;;;;;;;19.75;13.38;;;282.20;1638.40;;;;;;5019245;28;20053;-56
2021/01/23 00:49:43;;;;;;;15.73;10.10;;;282.10;1638.40;;;;;;5028627;28;20050;-55
2021/01/23 00:52:08;;;;;;;100.10;56.85;;;282.20;1638.40;;;;;;5028697;28;20021;-57
2021/01/23 00:54:37;;;;;;;30.27;19.77;;;282.20;1638.40;;;;;;5028425;28;20034;-56
2021/01/23 00:57:03;;;;;;;20.33;13.23;;;282.20;1612.80;;;;;;5028646;28;20021;-55
2021/01/23 00:59:28;;;;;;;12.85;7.57;;;282.40;1561.60;;;;;;5022788;28;20498;-55
2021/01/23 01:01:54;;;;;;;5.05;2.72;;;282.50;1561.60;;;;;;5022990;28;20379;-55
2021/01/23 01:04:19;;;;;;;10.32;6.03;;;307.60;1459.20;;;;;;5022066;28;20538;-55
2021/01/23 01:06:45;;;;;;;23.73;13.82;;;307.40;1536.00;;;;;;5032558;28;20049;-55
2021/01/23 01:09:11;;;;;;;21.13;12.82;;;307.40;1561.60;;;;;;5032634;28;20061;-55
2021/01/23 01:11:36;;;;;;;20.33;12.45;;;307.20;1587.20;;;;;;5032565;28;20021;-55
2021/01/23 01:14:02;;;;;;;29.02;16.92;;;307.30;1536.00;;;;;;5021623;28;20117;-57
2021/01/23 01:16:28;;;;;;;75.15;43.30;;;307.40;1536.00;;;;;;5032601;28;20051;-57
2021/01/23 01:18:54;;;;;;;54.00;28.73;;;307.50;1484.80;;;;;;5032323;28;20449;-56
2021/01/23 01:21:19;;;;;;;30.40;16.30;;;307.60;1484.80;;;;;;5021777;28;20044;-55
2021/01/23 01:23:45;;;;;;;4.70;2.53;;;307.80;1433.60;;;;;;5023398;28;20029;-55
2021/01/23 01:26:11;;;;;;;17.48;11.65;;;308.00;1408.00;;;;;;5022070;28;20065;-55
2021/01/23 01:28:36;;;;;;;21.63;14.60;;;308.00;1408.00;;;;;;5032463;28;20025;-59
2021/01/23 01:31:02;;;;;;;30.95;18.88;;;308.10;1408.00;;;;;;5032478;28;20072;-57
2021/01/23 01:33:28;;;;;;;41.63;22.75;;;308.10;1408.00;;;;;;5032235;28;20042;-58
2021/01/23 01:35:54;;;;;;;45.50;22.67;;;332.80;1433.60;;;;;;5032040;28;20075;-58
2021/01/23 01:38:19;;;;;;;70.32;38.63;;;332.80;1433.60;;;;;;5032182;28;20024;-56
2021/01/23 01:40:45;;;;;;;9.57;5.50;;;308.10;1408.00;;;;;;5031924;28;20018;-56
2021/01/23 01:43:11;;;;;;;6.53;4.30;;;332.80;1408.00;;;;;;5022415;28;20083;-55
2021/01/23 01:45:36;;;;;;;27.52;14.45;;;332.90;1408.00;;;;;;5022487;28;20022;-56
2021/01/23 01:48:03;;;;;;;47.38;25.83;;;332.80;1408.00;;;;;;5031885;28;20073;-55
2021/01/23 01:50:28;;;;;;;28.08;16.60;;;332.90;1408.00;;;;;;5022826;28;20415;-57
2021/01/23 01:52:54;;;;;;;23.27;11.57;;;332.80;1408.00;;;;;;5020366;28;20029;-55
2021/01/23 01:55:32;;;;;;;13.85;7.60;;;332.80;1433.60;;;;;;5013484;28;20370;-56
2021/01/23 01:57:58;;;;;;;7.50;2.95;;;332.80;1408.00;;;;;;5013193;28;20029;-56
2021/01/23 02:00:24;;;;;;;13.95;5.63;;;332.90;1382.40;;;;;;5013245;28;20109;-56
2021/01/23 02:03:00;;;;;;;20.92;11.57;;;332.90;1382.40;;;;;;5013313;28;20133;-56
2021/01/23 02:05:35;;;;;;;24.45;15.43;;;333.00;1382.40;;;;;;5013128;28;20053;-56
2021/01/23 02:08:07;;;;;;;4.47;2.10;;;332.90;1408.00;;;;;;5013211;28;20064;-55
2021/01/23 02:10:56;;;;;;;8.32;5.80;;;332.90;1408.00;;;;;;5012726;28;20026;-57
2021/01/23 02:13:30;;;;;;;5.22;3.00;;;332.90;1408.00;;;;;;5012975;28;20022;-57
2021/01/23 02:16:06;;;;;;;6.45;3.85;;;333.00;1382.40;;;;;;5012906;28;20030;-55
2021/01/23 02:19:03;;;;;;;18.38;9.50;;;333.10;1382.40;;;;;;5012931;28;20515;-55
2021/01/23 02:21:50;;;;;;;19.20;9.95;;;333.10;1382.40;;;;;;5012780;28;20416;-56
2021/01/23 02:24:24;;;;;;;15.52;8.38;;;333.10;1382.40;;;;;;5012934;28;20116;-56
2021/01/23 02:26:59;;;;;;;3.90;2.42;;;333.10;1382.40;;;;;;5013031;28;20033;-56
2021/01/23 02:30:03;;;;;;;16.65;8.98;;;333.20;1356.80;;;;;;5012660;28;20064;-57
2021/01/23 02:32:32;;;;;;;6.13;2.65;;;333.20;1356.80;;;;;;5013029;28;20061;-56
2021/01/23 02:35:00;;;;;;;15.68;6.38;;;333.20;1382.40;;;;;;5012816;28;20420;-56
2021/01/23 02:37:28;;;;;;;80.07;34.05;;;333.20;1356.80;;;;;;5012570;28;20427;-57
2021/01/23 02:39:54;;;;;;;7.15;2.30;;;333.20;1382.40;;;;;;5012573;28;20030;-57
2021/01/23 02:42:20;;;;;;;5.18;2.90;;;333.10;1356.80;;;;;;5012557;28;20022;-56
2021/01/23 02:44:46;;;;;;;5.97;2.92;;;333.20;1331.20;;;;;;5012338;28;20026;-56
2021/01/23 02:47:11;;;;;;;6.38;3.22;;;333.30;1331.20;;;;;;5012385;28;20096;-56
2021/01/23 02:49:37;;;;;;;59.72;26.50;;;333.20;1356.80;;;;;;5012270;28;20066;-56
2021/01/23 02:52:32;;;;;;;9.02;4.47;;;333.20;1356.80;;;;;;5012547;28;20424;-56
2021/01/23 02:55:14;;;;;;;22.27;17.23;;;332.90;1408.00;;;;;;5012350;28;20034;-54
2021/01/23 02:57:42;;;;;;;6.07;4.45;;;308.10;1433.60;;;;;;5012422;28;20022;-55
2021/01/23 03:00:10;;;;;;;7.57;3.80;;;308.00;1408.00;;;;;;5012127;28;20026;-56
2021/01/23 03:03:01;;;;;;;14.90;9.57;;;307.80;1459.20;;;;;;5011931;28;20112;-55
2021/01/23 03:05:30;;;;;;;7.28;4.40;;;307.50;1484.80;;;;;;5011987;28;20022;-56
2021/01/23 03:07:56;;;;;;;9.90;5.40;;;307.40;1510.40;;;;;;5012109;28;20026;-55
2021/01/23 03:10:37;;;;;;;7.70;4.57;;;307.20;1510.40;;;;;;5012281;28;20104;-55
2021/01/23 03:13:05;;;;;;;10.25;4.85;;;307.30;1510.40;;;;;;5011953;28;20026;-56
2021/01/23 03:15:31;;;;;;;10.60;6.38;;;307.20;1510.40;;;;;;5012021;28;20040;-56
2021/01/23 03:17:57;;;;;;;14.45;7.45;;;282.50;1510.40;;;;;;5011762;28;20030;-56
2021/01/23 03:20:23;;;;;;;7.20;4.47;;;282.50;1510.40;;;;;;5012090;28;20036;-56
2021/01/23 03:22:48;;;;;;;5.32;2.83;;;282.50;1510.40;;;;;;5011990;28;20030;-55
2021/01/23 03:25:14;;;;;;;9.32;3.72;;;282.50;1484.80;;;;;;5011715;28;20436;-56
2021/01/23 03:27:40;;;;;;;8.00;4.85;;;282.50;1484.80;;;;;;5011734;28;20030;-56
2021/01/23 03:30:07;;;;;;;4.40;2.67;;;282.50;1484.80;;;;;;5011487;28;20046;-56
2021/01/23 03:32:32;;;;;;;7.55;4.68;;;307.30;1484.80;;;;;;5012005;28;20057;-56
2021/01/23 03:34:58;;;;;;;9.45;5.03;;;307.20;1484.80;;;;;;5011467;28;20092;-56
2021/01/23 03:37:27;;;;;;;14.98;7.22;;;307.30;1484.80;;;;;;5011618;28;20030;-57
2021/01/23 03:39:52;;;;;;;16.75;8.00;;;307.30;1484.80;;;;;;5011610;28;20030;-56
2021/01/23 03:42:18;;;;;;;10.93;6.78;;;282.50;1484.80;;;;;;5011441;28;20083;-56
2021/01/23 03:44:44;;;;;;;6.55;3.47;;;282.50;1510.40;;;;;;5011128;28;20075;-57
2021/01/23 03:47:10;;;;;;;6.13;3.72;;;307.20;1484.80;;;;;;5011580;28;20030;-56
2021/01/23 03:49:36;;;;;;;8.85;5.03;;;307.30;1484.80;;;;;;5011147;28;20069;-57
2021/01/23 03:52:04;;;;;;;6.65;3.78;;;307.60;1459.20;;;;;;5011524;28;20022;-56
2021/01/23 03:54:30;;;;;;;11.55;5.40;;;307.50;1459.20;;;;;;5011347;28;20046;-56
2021/01/23 03:56:56;;;;;;;9.57;5.40;;;307.30;1484.80;;;;;;5011091;28;20476;-56
2021/01/23 03:59:21;;;;;;;4.88;2.45;;;307.20;1510.40;;;;;;5011109;28;20361;-56
2021/01/23 04:01:47;;;;;;;9.10;4.10;;;307.30;1484.80;;;;;;5010861;28;20511;-56
2021/01/23 04:04:12;;;;;;;7.63;4.05;;;282.50;1484.80;;;;;;5011312;28;20435;-56
2021/01/23 04:06:38;;;;;;;23.50;11.15;;;282.40;1510.40;;;;;;5011187;28;20503;-56
2021/01/23 04:09:04;;;;;;;34.78;15.65;;;282.30;1510.40;;;;;;5010691;28;20022;-57
2021/01/23 04:11:30;;;;;;;18.05;10.43;;;282.20;1536.00;;;;;;5042873;28;20061;-56
2021/01/23 04:13:55;;;;;;;16.23;9.57;;;282.40;1484.80;;;;;;5010732;28;20423;-55
2021/01/23 04:16:21;;;;;;;8.73;5.38;;;282.50;1484.80;;;;;;5010816;28;20120;-56
2021/01/23 04:18:46;;;;;;;7.68;4.05;;;307.30;1484.80;;;;;;5010606;28;20069;-56
2021/01/23 04:21:12;;;;;;;13.52;6.90;;;307.30;1484.80;;;;;;5010912;28;20037;-54
2021/01/23 04:23:39;;;;;;;9.25;5.78;;;307.20;1484.80;;;;;;5010559;28;20041;-56
2021/01/23 04:26:05;;;;;;;7.55;4.55;;;307.60;1433.60;;;;;;5010823;28;20392;-56
2021/01/23 04:28:30;;;;;;;11.27;5.40;;;307.60;1433.60;;;;;;5010699;28;20159;-56
2021/01/23 04:30:56;;;;;;;17.20;6.53;;;307.70;1433.60;;;;;;5010563;28;20022;-56
2021/01/23 04:33:22;;;;;;;5.95;3.63;;;307.70;1408.00;;;;;;5010471;28;20037;-56
2021/01/23 04:35:47;;;;;;;6.28;3.60;;;307.70;1408.00;;;;;;5010705;28;20056;-56
2021/01/23 04:38:13;;;;;;;10.23;6.60;;;307.70;1408.00;;;;;;5010742;28;20100;-55
2021/01/23 04:40:39;;;;;;;8.93;5.88;;;307.30;1484.80;;;;;;5010658;28;20032;-56
2021/01/23 04:43:04;;;;;;;16.75;8.60;;;307.30;1510.40;;;;;;5010520;28;20097;-56
2021/01/23 04:45:30;;;;;;;12.02;7.68;;;282.50;1510.40;;;;;;5010589;28;20049;-57
2021/01/23 04:47:56;;;;;;;20.23;11.20;;;282.40;1510.40;;;;;;5010179;28;20098;-56
2021/01/23 04:50:22;;;;;;;17.05;8.35;;;282.30;1510.40;;;;;;5010836;28;20030;-57
2021/01/23 04:52:48;;;;;;;8.80;5.85;;;282.40;1484.80;;;;;;5010355;28;20037;-57
2021/01/23 04:55:14;;;;;;;5.15;3.30;;;307.20;1484.80;;;;;;5010383;28;20045;-57
2021/01/23 04:57:42;;;;;;;16.90;9.38;;;307.50;1433.60;;;;;;5010657;28;20096;-56
2021/01/23 05:00:10;;;;;;;15.57;6.82;;;307.60;1433.60;;;;;;5010189;28;20103;-56
2021/01/23 05:02:35;;;;;;;19.95;13.63;;;307.60;1433.60;;;;;;5010042;28;20101;-57
2021/01/23 05:05:03;;;;;;;19.40;12.35;;;307.40;1459.20;;;;;;5010383;28;20168;-55
2021/01/23 05:07:36;;;;;;;33.25;18.48;;;307.30;1484.80;;;;;;5010419;28;20075;-56
2021/01/23 05:10:13;;;;;;;38.60;23.23;;;307.20;1484.80;;;;;;5010494;28;20025;-56
2021/01/23 05:12:46;;;;;;;47.28;23.60;;;282.40;1484.80;;;;;;5010458;28;20030;-56
2021/01/23 05:15:30;;;;;;;32.70;17.67;;;282.20;1510.40;;;;;;5010093;28;20030;-56
2021/01/23 05:18:06;;;;;;;37.20;15.00;;;282.10;1510.40;;;;;;5010064;28;20109;-57
2021/01/23 05:20:47;;;;;;;33.70;20.73;;;282.10;1536.00;;;;;;5010422;28;20052;-56
2021/01/23 05:23:19;;;;;;;91.53;47.53;;;282.00;1561.60;;;;;;5010187;28;20257;-57
2021/01/23 05:25:51;;;;;;;575.88;319.05;;;281.90;1561.60;;;;;;5009977;28;20037;-56
2021/01/23 05:28:30;;;;;;;649.30;344.92;;;281.90;1561.60;;;;;;5009951;28;20412;-56
2021/01/23 05:30:57;;;;;;;189.95;84.88;;;282.10;1536.00;;;;;;5010076;28;20084;-57
2021/01/23 05:33:25;;;;;;;89.50;39.17;;;282.10;1510.40;;;;;;5010279;28;20028;-56
2021/01/23 05:35:59;;;;;;;37.13;17.25;;;282.50;1459.20;;;;;;5010029;28;20041;-56
2021/01/23 05:38:45;;;;;;;17.05;8.63;;;282.50;1459.20;;;;;;5009794;28;20029;-56
2021/01/23 05:41:13;;;;;;;56.10;29.45;;;307.30;1433.60;;;;;;5010055;28;20033;-57
2021/01/23 05:43:39;;;;;;;49.28;23.88;;;307.40;1433.60;;;;;;5009728;28;20065;-55
2021/01/23 05:46:06;;;;;;;103.97;49.50;;;307.50;1408.00;;;;;;5011896;28;20069;-57
2021/01/23 05:48:33;;;;;;;12.15;4.75;;;307.40;1459.20;;;;;;5013519;28;20054;-56
2021/01/23 05:51:00;;;;;;;17.33;10.05;;;307.50;1433.60;;;;;;5013610;28;20026;-56
2021/01/23 05:53:26;;;;;;;49.53;27.75;;;307.60;1408.00;;;;;;5013315;28;20515;-57
2021/01/23 05:55:52;;;;;;;24.25;12.10;;;307.80;1382.40;;;;;;5013337;28;20121;-56
2021/01/23 05:58:18;;;;;;;31.90;19.05;;;307.90;1356.80;;;;;;5013238;28;20110;-56
2021/01/23 06:00:44;;;;;;;12.75;8.18;;;307.80;1408.00;;;;;;5013339;28;20033;-57
2021/01/23 06:03:13;;;;;;;35.33;20.38;;;307.70;1408.00;;;;;;5013332;28;20025;-56
2021/01/23 06:05:39;;;;;;;18.13;11.65;;;307.70;1382.40;;;;;;5013357;28;20026;-56
2021/01/23 06:08:05;;;;;;;45.17;29.25;;;307.70;1408.00;;;;;;5013182;28;20427;-57
2021/01/23 06:10:30;;;;;;;33.63;18.77;;;307.60;1433.60;;;;;;5013344;28;20105;-57
2021/01/23 06:12:56;;;;;;;47.67;30.80;;;307.60;1408.00;;;;;;5013062;28;20058;-56
2021/01/23 06:15:31;;;;;;;39.92;26.77;;;307.60;1408.00;;;;;;5013048;28;20034;-56
2021/01/23 06:18:01;;;;;;;49.00;29.45;;;307.50;1433.60;;;;;;5012818;28;20104;-56
2021/01/23 06:20:42;;;;;;;27.38;17.73;;;307.50;1433.60;;;;;;5013050;28;20041;-56
2021/01/23 06:23:13;;;;;;;33.30;20.50;;;307.50;1408.00;;;;;;5012786;28;20025;-56
2021/01/23 06:25:53;;;;;;;42.78;28.02;;;307.50;1433.60;;;;;;5013005;28;20049;-56
2021/01/23 06:28:22;;;;;;;43.63;29.27;;;307.60;1408.00;;;;;;5012783;28;20030;-56
2021/01/23 06:30:49;;;;;;;90.55;73.40;;;307.70;1408.00;;;;;;5012647;28;20226;-55
2021/01/23 06:33:23;;;;;;;44.20;30.40;;;307.70;1408.00;;;;;;5012781;28;20026;-57
2021/01/23 06:36:04;;;;;;;162.38;106.90;;;307.70;1408.00;;;;;;5013016;28;20395;-56
2021/01/23 06:38:30;;;;;;;59.60;42.33;;;307.70;1433.60;;;;;;5012781;28;20018;-56
2021/01/23 06:41:16;;;;;;;59.00;45.70;;;307.70;1408.00;;;;;;5012548;28;20033;-56
2021/01/23 06:44:19;;;;;;;20.45;16.67;;;307.80;1408.00;;;;;;5012476;28;20030;-57
2021/01/23 06:46:59;;;;;;;26.08;13.95;;;307.80;1408.00;;;;;;5013103;28;20030;-57
2021/01/23 06:49:25;;;;;;;19.95;11.23;;;307.90;1382.40;;;;;;5012201;28;20081;-57
2021/01/23 06:52:03;;;;;;;53.05;33.08;;;307.90;1382.40;;;;;;5012440;28;20036;-56
2021/01/23 06:54:29;;;;;;;52.50;31.30;;;307.90;1408.00;;;;;;5012467;28;20512;-56
2021/01/23 06:56:55;;;;;;;20.30;13.13;;;307.90;1408.00;;;;;;5011987;28;20101;-58
2021/01/23 06:59:37;;;;;;;42.67;25.25;;;308.00;1382.40;;;;;;5026233;28;20403;-57
2021/01/23 07:02:04;;;;;;;165.93;114.85;;;308.00;1382.40;;;;;;5031954;28;20376;-56
2021/01/23 07:04:50;;;;;;;164.80;91.97;;;308.00;1408.00;;;;;;5032023;28;20025;-56
2021/01/23 07:07:17;;;;;;;196.13;105.25;;;308.00;1382.40;;;;;;5031577;28;20033;-57
2021/01/23 07:09:49;;;;;;;36.88;23.83;;;308.00;1408.00;;;;;;5031890;28;20426;-56
2021/01/23 07:12:34;;;;;;;39.70;30.38;;;308.10;1382.40;;;;;;5031620;28;20025;-57
2021/01/23 07:15:05;;;;;;;22.33;17.13;;;332.80;1382.40;;;;;;5031803;28;20072;-56
2021/01/23 07:17:44;;;;;;;24.95;22.23;;;332.80;1408.00;;;;;;5032001;28;20026;-56
2021/01/23 07:20:12;;;;;;;28.73;21.20;;;332.90;1382.40;;;;;;5031695;28;20029;-57
2021/01/23 07:22:39;;;;;;;22.00;14.80;;;332.90;1382.40;;;;;;5031537;28;20025;-57
2021/01/23 07:25:07;;;;;;;32.42;21.33;;;332.80;1382.40;;;;;;5031340;28;20040;-57
2021/01/23 07:27:34;;;;;;;28.98;18.05;;;332.80;1382.40;;;;;;5031597;28;20083;-56
2021/01/23 07:30:00;;;;;;;15.48;10.85;;;332.90;1382.40;;;;;;5031766;28;20113;-57
2021/01/23 07:32:36;;;;;;;25.40;18.23;;;333.00;1356.80;;;;;;5031254;28;20057;-56
2021/01/23 07:35:02;;;;;;;30.00;19.80;;;333.10;1356.80;;;;;;5031599;28;20048;-56
2021/01/23 07:37:41;;;;;;;45.25;27.55;;;333.00;1382.40;;;;;;5031234;28;20059;-56
2021/01/23 07:40:09;;;;;;;34.75;21.73;;;333.10;1382.40;;;;;;5031074;28;20513;-57
2021/01/23 07:42:35;;;;;;;37.30;23.00;;;333.10;1356.80;;;;;;5031192;28;20060;-55
2021/01/23 07:45:06;;;;;;;31.63;19.83;;;333.10;1382.40;;;;;;5031189;28;20029;-56
2021/01/23 07:47:32;;;;;;;65.65;37.33;;;333.10;1356.80;;;;;;5030944;28;20037;-56
2021/01/23 07:50:05;;;;;;;48.47;28.88;;;333.10;1382.40;;;;;;5031086;28;20040;-56
2021/01/23 07:52:31;;;;;;;96.32;66.18;;;333.10;1356.80;;;;;;5031081;28;20025;-56
2021/01/23 07:54:56;;;;;;;134.30;90.43;;;333.20;1356.80;;;;;;5030813;28;20038;-56
2021/01/23 07:57:22;;;;;;;21.75;13.98;;;333.30;1331.20;;;;;;5031163;28;20029;-57
2021/01/23 07:59:48;;;;;;;37.92;25.73;;;333.40;1331.20;;;;;;5030738;28;20030;-56
2021/01/23 08:02:16;;;;;;;18.00;12.20;;;333.40;1305.60;;;;;;5030841;28;20048;-57
2021/01/23 08:04:46;;;;;;;45.63;36.08;;;333.50;1305.60;;;;;;5030795;28;20022;-56
2021/01/23 08:07:27;;;;;;;280.27;125.28;;;333.50;1331.20;;;;;;5030592;28;20032;-56
2021/01/23 08:10:06;;;;;;;61.97;47.25;;;333.50;1331.20;;;;;;5030662;28;20184;-56
2021/01/23 08:12:33;;;;;;;53.63;34.83;;;333.50;1331.20;;;;;;5030925;28;20487;-56
2021/01/23 08:14:59;;;;;;;29.80;18.67;;;333.50;1356.80;;;;;;5030579;28;20037;-56
2021/01/23 08:17:38;;;;;;;23.00;15.68;;;333.40;1331.20;;;;;;5030503;28;20036;-55
2021/01/23 08:20:15;;;;;;;28.17;15.23;;;333.50;1331.20;;;;;;5030500;28;20449;-56
2021/01/23 08:34:11;;;;;;;59.15;39.35;;;333.70;1331.20;;;;;;5067233;28;20417;-55
2021/01/23 08:36:37;;;;;;;38.38;28.73;;;358.80;1254.40;;;;;;5066132;28;20419;-57
2021/01/23 08:39:06;;;;;;;64.85;39.92;;;358.70;1254.40;;;;;;5067121;28;20033;-52
2021/01/23 08:41:33;;;;;;;81.55;46.38;;;358.60;1280.00;;;;;;5067367;28;20029;-57
2021/01/23 08:43:59;;;;;;;90.72;50.50;;;358.50;1280.00;;;;;;5067146;28;20071;-55
2021/01/23 08:46:25;;;;;;;153.07;94.93;;;358.50;1254.40;;;;;;5066769;28;20013;-51
2021/01/23 08:48:51;;;;;;;49.15;33.58;;;358.50;1280.00;;;;;;5067216;28;20359;-54
2021/01/23 08:51:17;;;;;;;114.55;74.50;;;358.40;1280.00;;;;;;5066810;28;20021;-57
2021/01/23 08:53:42;;;;;;;135.15;86.85;;;358.40;1305.60;;;;;;5066677;28;20035;-53
2021/01/23 08:56:11;;;;;;;28.38;16.73;;;358.40;1305.60;;;;;;5067006;28;20029;-58
2021/01/23 08:58:37;;;;;;;83.55;63.50;;;358.40;1254.40;;;;;;5066991;28;20029;-52
2021/01/23 09:01:03;;;;;;;21.20;11.75;;;358.40;1305.60;;;;;;5066910;28;20074;-57
2021/01/23 09:03:29;;;;;;;42.17;24.05;;;333.70;1280.00;;;;;;5066333;28;20045;-54
2021/01/23 09:05:56;;;;;;;60.95;37.38;;;358.40;1254.40;;;;;;5066911;28;20451;-57
2021/01/23 09:08:21;;;;;;;47.28;26.85;;;333.70;1280.00;;;;;;5066015;28;20070;-58
2021/01/23 09:10:47;;;;;;;100.30;54.00;;;333.70;1280.00;;;;;;5066486;28;20104;-57
2021/01/23 09:13:13;;;;;;;93.82;56.58;;;333.70;1280.00;;;;;;5066736;28;20029;-58
2021/01/23 09:15:39;;;;;;;115.43;64.65;;;333.70;1305.60;;;;;;5066188;28;20025;-58
2021/01/23 09:18:05;;;;;;;30.10;17.48;;;358.40;1280.00;;;;;;5066518;28;20021;-58
2021/01/23 09:20:31;;;;;;;35.15;23.23;;;333.70;1280.00;;;;;;5066394;28;20111;-58
2021/01/23 09:22:57;;;;;;;43.92;27.17;;;358.40;1280.00;;;;;;5066080;28;20045;-59
2021/01/23 09:25:23;;;;;;;31.58;20.27;;;333.70;1280.00;;;;;;5066300;28;20031;-57
2021/01/23 09:27:49;;;;;;;22.85;14.48;;;333.70;1280.00;;;;;;5066210;28;20032;-57
2021/01/23 09:30:15;;;;;;;133.45;98.25;;;333.70;1280.00;;;;;;5066302;28;20474;-53
2021/01/23 09:32:44;;;;;;;76.53;58.78;;;358.40;1280.00;;;;;;5065915;28;20075;-57
2021/01/23 09:35:11;;;;;;;150.30;96.78;;;358.40;1305.60;;;;;;5052419;28;20067;-57
2021/01/23 09:37:37;;;;;;;34.58;20.70;;;358.40;1280.00;;;;;;5052437;28;20410;-57
2021/01/23 09:40:03;;;;;;;72.75;34.50;;;358.40;1280.00;;;;;;5052932;28;20032;-57
2021/01/23 09:42:29;;;;;;;88.03;49.72;;;358.40;1254.40;;;;;;5052725;28;20044;-51
2021/01/23 09:44:55;;;;;;;76.15;41.15;;;358.50;1305.60;;;;;;5053114;28;20566;-54
2021/01/23 09:47:21;;;;;;;52.42;28.20;;;358.50;1254.40;;;;;;5052822;28;20031;-53
2021/01/23 09:49:47;;;;;;;56.17;36.08;;;358.50;1280.00;;;;;;5052507;28;20098;-53
2021/01/23 09:52:12;;;;;;;78.38;52.95;;;358.40;1280.00;;;;;;5052640;28;20095;-53
2021/01/23 09:54:38;;;;;;;30.05;21.13;;;358.50;1280.00;;;;;;5052286;28;20056;-56
2021/01/23 09:57:04;;;;;;;69.93;43.17;;;358.40;1280.00;;;;;;5052460;28;20029;-57
2021/01/23 09:59:30;;;;;;;46.47;30.98;;;358.50;1280.00;;;;;;5052059;28;20049;-54
2021/01/23 10:01:58;;;;;;;27.13;17.13;;;358.60;1280.00;;;;;;5052060;28;20141;-54
2021/01/23 10:04:23;;;;;;;36.78;21.20;;;358.50;1280.00;;;;;;5052583;28;20033;-57
2021/01/23 10:06:49;;;;;;;24.50;14.65;;;358.40;1280.00;;;;;;5052118;28;20490;-57
2021/01/23 10:09:15;;;;;;;25.23;14.40;;;358.40;1280.00;;;;;;5052366;28;20025;-57
2021/01/23 10:11:40;;;;;;;30.98;19.90;;;333.70;1280.00;;;;;;5052348;28;20021;-58
2021/01/23 10:14:06;;;;;;;23.00;16.05;;;358.40;1280.00;;;;;;5051966;28;20024;-57
2021/01/23 10:16:32;;;;;;;26.75;17.52;;;333.70;1280.00;;;;;;5052225;28;20029;-54
2021/01/23 10:19:01;;;;;;;64.45;38.58;;;358.50;1280.00;;;;;;5052023;28;20378;-57
2021/01/23 10:21:26;;;;;;;125.90;77.45;;;358.50;1280.00;;;;;;5051912;28;20055;-56
2021/01/23 10:23:52;;;;;;;49.33;29.30;;;358.60;1305.60;;;;;;5051814;28;20474;-57
2021/01/23 10:26:17;;;;;;;247.82;158.60;;;358.50;1280.00;;;;;;5051963;28;20508;-57
2021/01/23 10:28:43;;;;;;;273.58;179.68;;;358.60;1305.60;;;;;;5052074;28;20036;-57
2021/01/23 10:31:09;;;;;;;43.80;25.75;;;358.60;1305.60;;;;;;5051922;28;20040;-57
2021/01/23 10:33:35;;;;;;;67.85;39.25;;;358.50;1280.00;;;;;;5051456;28;20106;-58
2021/01/23 10:36:01;;;;;;;44.88;27.85;;;358.70;1280.00;;;;;;5051705;28;20033;-57
2021/01/23 10:38:26;;;;;;;43.70;27.15;;;358.70;1280.00;;;;;;5051511;28;20017;-57
2021/01/23 10:40:54;;;;;;;54.38;34.00;;;358.80;1280.00;;;;;;5051638;28;20127;-53
2021/01/23 10:43:20;;;;;;;46.40;27.77;;;358.90;1254.40;;;;;;5051521;28;20084;-55
2021/01/23 10:45:46;;;;;;;61.92;36.33;;;358.90;1254.40;;;;;;5050501;28;20432;-54
2021/01/23 10:48:12;;;;;;;104.57;72.35;;;358.90;1280.00;;;;;;5051640;28;20108;-57
2021/01/23 10:50:39;;;;;;;30.73;23.27;;;359.00;1254.40;;;;;;5051199;28;20108;-56
2021/01/23 10:53:04;;;;;;;37.17;22.80;;;359.30;1228.80;;;;;;5051323;28;20025;-59
2021/01/23 10:55:30;;;;;;;64.57;39.25;;;384.00;1203.20;;;;;;5049733;28;20033;-59
2021/01/23 10:57:56;;;;;;;52.42;34.70;;;384.00;1228.80;;;;;;5051490;28;20033;-57
2021/01/23 11:00:22;;;;;;;62.90;40.08;;;384.10;1203.20;;;;;;5051309;28;20406;-58
2021/01/23 11:02:48;;;;;;;30.05;20.50;;;384.40;1203.20;;;;;;5050819;28;20045;-58
2021/01/23 11:05:14;;;;;;;45.08;27.60;;;384.30;1203.20;;;;;;5051203;28;20032;-56
2021/01/23 11:07:40;;;;;;;42.40;24.75;;;384.60;1177.60;;;;;;5050904;28;20021;-59
2021/01/23 11:10:06;;;;;;;86.25;48.63;;;384.80;1177.60;;;;;;5050831;28;20044;-57
2021/01/23 11:12:33;;;;;;;30.45;15.80;;;409.60;1203.20;;;;;;5051125;28;20497;-58
2021/01/23 11:14:59;;;;;;;17.40;10.63;;;409.70;1152.00;;;;;;5051050;28;20033;-54
2021/01/23 11:17:24;;;;;;;31.27;18.08;;;409.70;1126.40;;;;;;5050826;28;20120;-54
2021/01/23 11:19:51;;;;;;;27.98;18.48;;;409.60;1152.00;;;;;;5050899;28;20032;-54
2021/01/23 11:22:17;;;;;;;22.33;13.57;;;409.90;1126.40;;;;;;5050656;28;20033;-53
2021/01/23 11:24:42;;;;;;;14.63;9.73;;;409.80;1126.40;;;;;;5050752;28;20025;-58
2021/01/23 11:27:08;;;;;;;28.77;17.25;;;409.90;1126.40;;;;;;5050597;28;20029;-57
2021/01/23 11:29:34;;;;;;;33.90;24.33;;;410.20;1100.80;;;;;;5050693;28;20645;-59
2021/01/23 11:32:00;;;;;;;25.33;15.95;;;410.10;1126.40;;;;;;5050480;28;20116;-59
2021/01/23 11:34:26;;;;;;;24.42;12.65;;;409.90;1152.00;;;;;;5050623;28;20150;-58
2021/01/23 11:36:52;;;;;;;25.58;17.67;;;409.80;1152.00;;;;;;5050737;28;20469;-59
2021/01/23 11:39:18;;;;;;;48.10;37.03;;;410.00;1152.00;;;;;;5050246;28;20021;-53
2021/01/23 11:41:45;;;;;;;70.15;48.55;;;410.00;1177.60;;;;;;5050792;28;20037;-58
2021/01/23 11:44:11;;;;;;;47.55;37.10;;;410.10;1177.60;;;;;;5050111;28;20036;-55
2021/01/23 11:46:37;;;;;;;60.67;40.70;;;410.50;1152.00;;;;;;5050475;28;20024;-57
2021/01/23 11:49:03;;;;;;;63.30;44.20;;;410.30;1152.00;;;;;;5050323;28;20029;-59
2021/01/23 11:51:29;;;;;;;77.13;53.33;;;435.30;1126.40;;;;;;5050252;28;20098;-56
2021/01/23 11:53:55;;;;;;;43.42;27.85;;;435.30;1126.40;;;;;;5050230;28;20025;-54
2021/01/23 11:56:21;;;;;;;34.45;23.70;;;435.20;1126.40;;;;;;5050151;28;20025;-53
2021/01/23 11:58:47;;;;;;;41.90;25.40;;;410.30;1126.40;;;;;;5050329;28;20025;-53
2021/01/23 12:01:12;;;;;;;34.33;23.15;;;410.30;1152.00;;;;;;5050413;28;20067;-58
2021/01/23 12:03:38;;;;;;;67.90;42.30;;;410.50;1126.40;;;;;;5049876;28;20041;-53
2021/01/23 12:06:04;;;;;;;42.33;26.00;;;410.50;1126.40;;;;;;5050290;28;20079;-52
2021/01/23 12:08:30;;;;;;;33.47;20.40;;;435.20;1100.80;;;;;;5050218;28;20040;-53
2021/01/23 12:10:56;;;;;;;64.15;42.08;;;410.30;1126.40;;;;;;5049596;28;20025;-55
2021/01/23 12:13:22;;;;;;;56.25;34.28;;;410.50;1126.40;;;;;;5049734;28;20028;-56
2021/01/23 12:15:47;;;;;;;49.03;34.67;;;435.20;1152.00;;;;;;5050174;28;20379;-54
2021/01/23 12:18:13;;;;;;;44.72;31.65;;;410.30;1126.40;;;;;;5049859;28;20056;-57